Time;durP1;ratioP1;P1;durP2;ratioP2;P2;SDS_P1;SDS_P2;PMS_P1;PMS_P2;Temp;Humidity;BMP_temperature;BMP_pressure;BME280_temperature;BME280_humidity;BME280_pressure;Samples;Min_cycle;Max_cycle;Signal;HPM_P1;HPM_P2
2022/01/13 00:02:27;;;;;;;40.60;19.30;;;-3.40;74.80;;;;;;5074517;28;20111;-74
2022/01/13 00:04:53;;;;;;;40.50;18.58;;;-3.50;75.00;;;;;;5074440;28;20020;-74
2022/01/13 00:07:19;;;;;;;36.63;17.95;;;-3.60;75.40;;;;;;5074388;28;20031;-74
2022/01/13 00:09:44;;;;;;;39.00;18.48;;;-3.50;75.60;;;;;;5073601;28;20021;-75
2022/01/13 00:12:11;;;;;;;34.03;17.52;;;-3.50;75.70;;;;;;5074254;28;20037;-75
2022/01/13 00:14:41;;;;;;;41.88;19.65;;;-3.50;75.50;;;;;;5074177;28;20020;-74
2022/01/13 00:17:58;;;;;;;36.47;18.17;;;-3.50;75.00;;;;;;5074250;28;20388;-74
2022/01/13 00:23:39;;;;;;;34.30;17.70;;;-3.60;75.40;;;;;;5074192;28;20044;-74
2022/01/13 00:25:17;;;;;;;29.80;16.05;;;-3.60;75.60;;;;;;5069866;28;20474;-74
2022/01/13 00:27:49;;;;;;;31.13;17.15;;;-3.50;75.50;;;;;;5073468;28;20074;-74
2022/01/13 00:30:17;;;;;;;36.13;17.25;;;-3.40;75.20;;;;;;5073603;28;20085;-74
2022/01/13 00:32:44;;;;;;;35.63;18.52;;;-3.40;74.60;;;;;;5073697;28;20021;-74
2022/01/13 00:35:10;;;;;;;40.28;18.33;;;-3.50;74.70;;;;;;5073450;28;20064;-74
2022/01/13 00:37:37;;;;;;;42.40;20.45;;;-3.60;74.80;;;;;;5073872;28;20059;-74
2022/01/13 00:40:05;;;;;;;36.45;18.77;;;-3.60;75.00;;;;;;5073592;28;20445;-74
2022/01/13 00:42:31;;;;;;;39.00;19.42;;;-3.70;75.30;;;;;;5073300;28;20094;-74
2022/01/13 00:44:56;;;;;;;45.40;20.88;;;-3.60;75.70;;;;;;5073675;28;20457;-74
2022/01/13 00:47:22;;;;;;;36.58;18.58;;;-3.60;75.70;;;;;;5073627;28;20056;-74
2022/01/13 00:49:47;;;;;;;39.83;18.67;;;-3.50;75.50;;;;;;5073526;28;20078;-74
2022/01/13 00:52:13;;;;;;;37.35;18.50;;;-3.50;75.30;;;;;;5072853;28;20051;-74
2022/01/13 00:54:40;;;;;;;36.10;18.05;;;-3.50;75.00;;;;;;5073447;28;20052;-74
2022/01/13 00:57:06;;;;;;;35.45;17.45;;;-3.50;74.50;;;;;;5055218;28;20366;-74
2022/01/13 00:59:32;;;;;;;35.67;17.55;;;-3.50;74.20;;;;;;5073359;28;20082;-74
2022/01/13 01:01:57;;;;;;;35.50;17.27;;;-3.50;73.90;;;;;;5073256;28;20058;-74
2022/01/13 01:04:24;;;;;;;34.85;17.00;;;-3.50;73.70;;;;;;5073281;28;20537;-74
2022/01/13 01:06:49;;;;;;;33.40;16.70;;;-3.60;73.40;;;;;;5073153;28;20082;-74
2022/01/13 01:09:20;;;;;;;34.45;15.90;;;-3.80;73.00;;;;;;5073105;28;20424;-74
2022/01/13 01:11:48;;;;;;;35.83;17.88;;;-3.70;73.20;;;;;;5072372;28;20027;-74
2022/01/13 01:14:16;;;;;;;43.85;19.60;;;-3.90;74.30;;;;;;5073072;28;20082;-74
2022/01/13 01:16:42;;;;;;;40.17;19.17;;;-4.00;75.20;;;;;;5073081;28;20016;-74
2022/01/13 01:19:10;;;;;;;34.80;17.35;;;-3.90;75.60;;;;;;5073142;28;20031;-74
2022/01/13 01:24:32;;;;;;;32.80;15.50;;;-3.90;75.00;;;;;;5073291;28;20104;-74
2022/01/13 01:27:05;;;;;;;34.40;15.02;;;-3.90;74.60;;;;;;5072936;28;20028;-74
2022/01/13 01:29:41;;;;;;;28.67;14.80;;;-3.80;74.30;;;;;;5072807;28;20089;-74
2022/01/13 01:32:10;;;;;;;31.30;15.30;;;-3.70;74.00;;;;;;5073384;28;20012;-74
2022/01/13 01:34:54;;;;;;;28.40;13.27;;;-3.80;73.70;;;;;;5073802;28;20055;-74
2022/01/13 01:37:26;;;;;;;29.77;13.98;;;-3.80;73.60;;;;;;5073039;28;20466;-74
2022/01/13 01:39:54;;;;;;;29.75;15.00;;;-3.80;73.40;;;;;;5076077;28;20052;-76
2022/01/13 01:42:21;;;;;;;27.63;12.88;;;-3.80;73.20;;;;;;5075450;28;20476;-75
2022/01/13 01:44:51;;;;;;;30.67;13.90;;;-3.80;73.40;;;;;;5074292;28;20048;-74
2022/01/13 01:47:18;;;;;;;26.40;13.48;;;-3.80;73.70;;;;;;5087029;28;20389;-74
2022/01/13 01:49:47;;;;;;;29.48;13.93;;;-3.80;73.80;;;;;;5079056;28;20020;-75
2022/01/13 01:52:16;;;;;;;23.30;12.02;;;-3.70;73.80;;;;;;5072929;28;20021;-74
2022/01/13 01:54:42;;;;;;;23.92;12.82;;;-3.70;73.80;;;;;;5072923;28;20028;-74
2022/01/13 01:57:09;;;;;;;28.92;13.82;;;-3.70;73.70;;;;;;5072954;28;20040;-74
2022/01/13 01:59:39;;;;;;;24.13;12.43;;;-3.70;73.40;;;;;;5072259;28;20025;-73
2022/01/13 02:02:06;;;;;;;24.00;12.55;;;-3.70;73.20;;;;;;5072812;28;20036;-73
2022/01/13 02:04:32;;;;;;;24.63;13.32;;;-3.70;73.10;;;;;;5076033;28;20461;-74
2022/01/13 02:07:03;;;;;;;29.83;13.50;;;-3.70;72.80;;;;;;5076849;28;20085;-74
2022/01/13 02:09:29;;;;;;;28.98;13.48;;;-3.70;72.40;;;;;;5077095;28;20025;-75
2022/01/13 02:11:59;;;;;;;24.58;12.05;;;-3.80;72.20;;;;;;5076764;28;20024;-74
2022/01/13 02:17:08;;;;;;;25.83;11.55;;;-3.90;72.20;;;;;;5076692;28;20024;-74
2022/01/13 02:19:37;;;;;;;20.13;10.95;;;-4.00;72.20;;;;;;5076679;28;20028;-73
2022/01/13 02:22:03;;;;;;;23.73;11.40;;;-3.90;72.40;;;;;;5076141;28;20028;-74
2022/01/13 02:24:29;;;;;;;24.92;11.48;;;-3.90;72.50;;;;;;5076432;28;20178;-74
2022/01/13 02:26:55;;;;;;;24.30;12.27;;;-3.90;72.70;;;;;;5076000;28;20642;-74
2022/01/13 02:29:21;;;;;;;23.85;11.95;;;-3.80;72.60;;;;;;5075370;28;20024;-74
2022/01/13 02:31:46;;;;;;;27.67;12.48;;;-3.80;72.50;;;;;;5075942;28;20020;-74
2022/01/13 02:34:12;;;;;;;26.48;13.05;;;-3.70;73.40;;;;;;5076157;28;20521;-74
2022/01/13 02:36:41;;;;;;;24.92;12.40;;;-3.70;72.30;;;;;;5057825;28;20041;-75
2022/01/13 02:39:06;;;;;;;25.05;11.93;;;-3.70;72.10;;;;;;5076042;28;20046;-74
2022/01/13 02:41:32;;;;;;;25.15;13.07;;;-3.60;71.80;;;;;;5075780;28;20481;-75
2022/01/13 02:43:59;;;;;;;30.75;14.63;;;-3.70;71.70;;;;;;5076089;28;20422;-74
2022/01/13 02:46:33;;;;;;;28.85;13.90;;;-3.70;71.50;;;;;;5076311;28;20408;-74
2022/01/13 02:48:59;;;;;;;29.30;13.70;;;-3.70;71.40;;;;;;5076086;28;20103;-74
2022/01/13 02:51:28;;;;;;;35.38;15.88;;;-3.70;71.40;;;;;;5075793;28;20425;-74
2022/01/13 02:53:54;;;;;;;29.52;15.35;;;-3.80;71.10;;;;;;5075733;28;20032;-74
2022/01/13 02:56:19;;;;;;;29.02;13.80;;;-3.90;71.20;;;;;;5075644;28;20031;-74
2022/01/13 02:58:45;;;;;;;28.00;14.43;;;-4.00;71.60;;;;;;5075697;28;20028;-74
2022/01/13 03:01:12;;;;;;;24.58;12.35;;;-4.00;71.90;;;;;;5075012;28;20031;-74
2022/01/13 03:03:39;;;;;;;28.25;12.13;;;-3.90;72.10;;;;;;5075796;28;20020;-75
2022/01/13 03:06:06;;;;;;;23.92;11.80;;;-3.90;71.90;;;;;;5082731;28;20025;-76
2022/01/13 03:08:32;;;;;;;20.67;11.13;;;-3.80;71.90;;;;;;5078927;28;20023;-74
2022/01/13 03:10:57;;;;;;;21.50;11.25;;;-3.80;71.80;;;;;;5057471;28;20413;-75
2022/01/13 03:13:24;;;;;;;22.67;11.32;;;-3.90;71.80;;;;;;5076015;28;20017;-75
2022/01/13 03:15:49;;;;;;;24.52;11.55;;;-3.90;71.80;;;;;;5073845;28;20548;-74
2022/01/13 03:18:15;;;;;;;21.33;10.52;;;-3.80;71.60;;;;;;5075305;28;20124;-74
2022/01/13 03:20:41;;;;;;;21.05;11.00;;;-3.90;71.50;;;;;;5075081;28;20028;-74
2022/01/13 03:23:06;;;;;;;17.55;8.95;;;-3.90;71.50;;;;;;5075147;28;20122;-75
2022/01/13 03:25:32;;;;;;;20.98;9.45;;;-3.90;71.70;;;;;;5075177;28;20035;-75
2022/01/13 03:28:05;;;;;;;17.77;9.05;;;-3.90;71.70;;;;;;5074984;28;20033;-74
2022/01/13 03:30:32;;;;;;;19.42;8.95;;;-4.00;72.00;;;;;;5074567;28;20059;-75
2022/01/13 03:32:57;;;;;;;15.18;8.20;;;-4.00;72.40;;;;;;5074898;28;20074;-74
2022/01/13 03:35:23;;;;;;;16.52;8.80;;;-4.00;72.70;;;;;;5075005;28;20451;-74
2022/01/13 03:37:48;;;;;;;17.80;8.23;;;-3.90;72.50;;;;;;5075021;28;20436;-74
2022/01/13 03:40:14;;;;;;;16.50;7.88;;;-3.90;72.40;;;;;;5056952;28;20029;-75
2022/01/13 03:42:40;;;;;;;16.77;8.68;;;-3.90;72.20;;;;;;5074717;28;20046;-74
2022/01/13 03:45:06;;;;;;;20.15;10.18;;;-3.90;72.10;;;;;;5075034;28;20024;-75
2022/01/13 03:47:31;;;;;;;26.48;13.50;;;-4.00;71.90;;;;;;5074672;28;20035;-75
2022/01/13 03:49:57;;;;;;;30.52;15.10;;;-4.20;72.40;;;;;;5074739;28;20021;-75
2022/01/13 03:52:22;;;;;;;32.80;15.98;;;-4.30;73.00;;;;;;5074608;28;20032;-73
2022/01/13 03:55:26;;;;;;;30.88;15.50;;;-4.30;73.30;;;;;;5074596;28;20139;-73
2022/01/13 03:58:12;;;;;;;34.33;15.38;;;-4.40;73.50;;;;;;5074523;28;20426;-73
2022/01/13 04:01:14;;;;;;;30.98;14.95;;;-4.50;74.30;;;;;;5076779;28;20097;-73
2022/01/13 04:03:40;;;;;;;34.42;14.90;;;-4.40;74.40;;;;;;5065255;28;20020;-74
2022/01/13 04:06:12;;;;;;;34.53;17.40;;;-4.40;74.70;;;;;;5093014;28;20119;-73
2022/01/13 04:08:38;;;;;;;26.70;13.63;;;-4.30;75.40;;;;;;5075802;28;20520;-73
2022/01/13 04:11:04;;;;;;;17.67;8.43;;;-4.40;75.40;;;;;;5074427;28;20025;-73
2022/01/13 04:16:17;;;;;;;19.02;9.18;;;-4.50;74.30;;;;;;5074285;28;20035;-73
2022/01/13 04:18:45;;;;;;;18.92;8.68;;;-4.50;73.90;;;;;;5073993;28;20023;-73
2022/01/13 04:21:10;;;;;;;16.35;7.32;;;-4.60;73.70;;;;;;5073483;28;20052;-73
2022/01/13 04:23:36;;;;;;;21.98;8.07;;;-4.60;73.70;;;;;;5073188;28;20052;-73
2022/01/13 04:26:05;;;;;;;14.38;7.40;;;-4.50;73.80;;;;;;5073639;28;20017;-73
2022/01/13 04:28:32;;;;;;;15.35;7.45;;;-4.50;73.90;;;;;;5072725;28;20066;-74
2022/01/13 04:31:00;;;;;;;16.20;7.78;;;-4.40;73.90;;;;;;5073511;28;20021;-73
2022/01/13 04:33:30;;;;;;;16.05;7.22;;;-4.30;73.90;;;;;;5073354;28;20059;-73
2022/01/13 04:35:56;;;;;;;13.60;6.13;;;-4.30;73.60;;;;;;5055293;28;20396;-74
2022/01/13 04:38:22;;;;;;;13.27;6.32;;;-4.30;73.40;;;;;;5073423;28;20024;-73
2022/01/13 04:40:54;;;;;;;13.55;6.97;;;-4.20;73.20;;;;;;5073239;28;20044;-73
2022/01/13 04:43:20;;;;;;;16.65;8.02;;;-4.20;73.10;;;;;;5072935;28;20025;-74
2022/01/13 04:45:45;;;;;;;12.93;6.65;;;-4.10;72.90;;;;;;5073223;28;20028;-73
2022/01/13 04:48:11;;;;;;;12.98;6.63;;;-4.10;72.80;;;;;;5073218;28;20021;-74
2022/01/13 04:50:36;;;;;;;16.23;7.30;;;-4.00;72.70;;;;;;5073299;28;20024;-74
2022/01/13 04:53:02;;;;;;;14.98;7.30;;;-4.00;72.30;;;;;;5073404;28;20087;-74
2022/01/13 04:55:31;;;;;;;14.63;8.00;;;-4.00;71.90;;;;;;5073492;28;20030;-74
2022/01/13 04:57:59;;;;;;;23.58;9.80;;;-4.00;71.80;;;;;;5073581;28;20103;-74
2022/01/13 05:00:25;;;;;;;21.80;9.38;;;-4.00;71.70;;;;;;5073210;28;20423;-74
2022/01/13 05:02:51;;;;;;;17.63;8.15;;;-4.00;71.40;;;;;;5073282;28;20028;-73
2022/01/13 05:05:16;;;;;;;17.55;7.90;;;-4.10;71.20;;;;;;5072986;28;20033;-74
2022/01/13 05:07:42;;;;;;;14.75;6.82;;;-4.10;71.50;;;;;;5072456;28;20444;-74
2022/01/13 05:10:08;;;;;;;16.17;7.93;;;-4.10;71.60;;;;;;5075744;28;20029;-74
2022/01/13 05:12:41;;;;;;;19.27;7.85;;;-4.10;71.80;;;;;;5073144;28;20028;-74
2022/01/13 05:15:08;;;;;;;11.73;6.43;;;-4.10;72.10;;;;;;5073163;28;20017;-73
2022/01/13 05:20:21;;;;;;;14.40;6.03;;;-4.20;71.90;;;;;;5073091;28;20078;-74
2022/01/13 05:22:48;;;;;;;10.95;6.30;;;-4.20;71.90;;;;;;5072540;28;20504;-74
2022/01/13 05:25:15;;;;;;;16.92;7.13;;;-4.20;72.00;;;;;;5072825;28;20050;-74
2022/01/13 05:27:41;;;;;;;14.60;7.28;;;-4.20;72.10;;;;;;5072662;28;20040;-74
2022/01/13 05:30:07;;;;;;;17.13;8.40;;;-4.20;72.20;;;;;;5072744;28;20100;-74
2022/01/13 05:32:33;;;;;;;20.25;9.55;;;-4.30;72.20;;;;;;5072397;28;20433;-74
2022/01/13 05:34:59;;;;;;;18.63;8.50;;;-4.20;71.90;;;;;;5072323;28;20044;-74
2022/01/13 05:37:25;;;;;;;18.55;9.18;;;-4.20;71.80;;;;;;5072502;28;20060;-74
2022/01/13 05:39:51;;;;;;;19.80;9.57;;;-4.10;71.90;;;;;;5054320;28;20198;-74
2022/01/13 05:42:16;;;;;;;26.88;10.75;;;-4.10;71.90;;;;;;5072432;28;20117;-74
2022/01/13 05:44:42;;;;;;;25.73;11.57;;;-4.10;71.70;;;;;;5072547;28;20031;-74
2022/01/13 05:47:10;;;;;;;27.15;12.52;;;-4.00;71.50;;;;;;5072863;28;20441;-73
2022/01/13 05:49:38;;;;;;;28.40;11.82;;;-4.10;71.30;;;;;;5073157;28;20021;-74
2022/01/13 05:52:04;;;;;;;26.27;12.05;;;-4.00;71.50;;;;;;5072898;28;20013;-74
2022/01/13 05:54:29;;;;;;;26.65;11.95;;;-4.00;71.20;;;;;;5072399;28;20074;-73
2022/01/13 05:56:55;;;;;;;25.13;11.32;;;-3.90;71.20;;;;;;5054358;28;20079;-74
2022/01/13 05:59:21;;;;;;;29.80;12.93;;;-4.00;71.00;;;;;;5072398;28;20488;-74
2022/01/13 06:01:47;;;;;;;27.27;13.88;;;-3.90;71.30;;;;;;5072043;28;20040;-74
2022/01/13 06:04:13;;;;;;;28.08;13.90;;;-3.90;71.40;;;;;;5072539;28;20017;-74
2022/01/13 06:06:38;;;;;;;29.70;15.00;;;-3.80;71.10;;;;;;5071981;28;20033;-74
2022/01/13 06:09:04;;;;;;;38.30;16.88;;;-3.80;70.90;;;;;;5072089;28;20021;-74
2022/01/13 06:11:37;;;;;;;34.03;17.73;;;-3.80;70.70;;;;;;5072055;28;20022;-73
2022/01/13 06:14:03;;;;;;;34.30;16.83;;;-3.90;70.60;;;;;;5054581;28;20096;-74
2022/01/13 06:16:29;;;;;;;31.42;17.00;;;-4.00;70.40;;;;;;5072176;28;20045;-74
2022/01/13 06:18:54;;;;;;;41.15;19.08;;;-3.90;70.80;;;;;;5072305;28;20481;-74
2022/01/13 06:21:20;;;;;;;38.22;18.20;;;-3.90;70.90;;;;;;5071943;28;20037;-74
2022/01/13 06:23:45;;;;;;;42.33;18.83;;;-4.00;70.50;;;;;;5071910;28;20028;-74
2022/01/13 06:26:11;;;;;;;42.20;19.88;;;-4.10;70.40;;;;;;5071312;28;20499;-75
2022/01/13 06:28:37;;;;;;;48.10;22.48;;;-4.20;70.70;;;;;;5071437;28;20096;-75
2022/01/13 06:31:02;;;;;;;44.65;21.45;;;-4.20;71.20;;;;;;5071926;28;20020;-75
2022/01/13 06:33:29;;;;;;;41.83;19.02;;;-4.20;71.70;;;;;;5071992;28;20078;-76
2022/01/13 06:35:55;;;;;;;46.33;19.75;;;-4.20;72.80;;;;;;5071981;28;20052;-76
2022/01/13 06:38:23;;;;;;;39.45;17.42;;;-4.20;71.90;;;;;;5072222;28;20032;-77
2022/01/13 06:40:49;;;;;;;33.95;15.73;;;-4.20;71.70;;;;;;5072070;28;20028;-77
2022/01/13 06:43:15;;;;;;;25.35;13.27;;;-4.20;71.60;;;;;;5072038;28;20028;-78
2022/01/13 06:45:41;;;;;;;22.23;11.10;;;-4.10;71.60;;;;;;5072055;28;20028;-74
2022/01/13 06:48:07;;;;;;;23.25;11.63;;;-4.10;71.40;;;;;;5072065;28;20382;-76
2022/01/13 06:50:33;;;;;;;24.33;12.23;;;-4.10;71.60;;;;;;5073475;28;20035;-77
2022/01/13 06:52:59;;;;;;;25.60;14.55;;;-4.10;71.60;;;;;;5075655;28;20125;-75
2022/01/13 06:55:24;;;;;;;27.52;14.52;;;-4.00;71.80;;;;;;5075637;28;20075;-77
2022/01/13 06:57:50;;;;;;;25.45;12.65;;;-3.90;72.10;;;;;;5075637;28;20431;-76
2022/01/13 07:00:16;;;;;;;23.83;12.05;;;-3.90;71.60;;;;;;5075463;28;20491;-76
2022/01/13 07:02:41;;;;;;;23.38;11.95;;;-3.90;71.30;;;;;;5075486;28;20040;-76
2022/01/13 07:05:07;;;;;;;19.65;10.90;;;-3.90;71.00;;;;;;5075515;28;20017;-76
2022/01/13 07:07:39;;;;;;;22.42;11.45;;;-4.00;70.70;;;;;;5057301;28;20028;-76
2022/01/13 07:10:10;;;;;;;24.42;11.88;;;-4.00;70.80;;;;;;5075364;28;20020;-76
2022/01/13 07:12:36;;;;;;;27.25;12.35;;;-4.00;70.70;;;;;;5075122;28;20066;-75
2022/01/13 07:15:02;;;;;;;33.47;14.82;;;-3.90;70.90;;;;;;5074902;28;20024;-77
2022/01/13 07:17:28;;;;;;;33.35;15.93;;;-3.90;70.90;;;;;;5075138;28;20062;-77
2022/01/13 07:19:54;;;;;;;30.70;15.07;;;-3.90;70.80;;;;;;5057764;28;20049;-76
2022/01/13 07:22:19;;;;;;;31.95;14.10;;;-3.80;70.70;;;;;;5075326;28;20033;-77
2022/01/13 07:24:46;;;;;;;24.30;10.68;;;-3.90;70.70;;;;;;5075152;28;20036;-76
2022/01/13 07:27:11;;;;;;;18.67;8.90;;;-3.90;70.60;;;;;;5075136;28;20415;-76
2022/01/13 07:29:39;;;;;;;23.30;10.50;;;-3.90;70.30;;;;;;5074839;28;20021;-77
2022/01/13 07:32:06;;;;;;;20.75;11.80;;;-3.80;70.30;;;;;;5074938;28;20043;-76
2022/01/13 07:34:32;;;;;;;21.17;10.68;;;-3.90;70.30;;;;;;5074746;28;20024;-76
2022/01/13 07:36:57;;;;;;;21.55;10.98;;;-4.00;70.20;;;;;;5074942;28;20453;-77
2022/01/13 07:39:23;;;;;;;19.02;9.75;;;-3.90;70.50;;;;;;5074956;28;20366;-74
2022/01/13 07:41:49;;;;;;;21.02;11.20;;;-3.90;70.60;;;;;;5074809;28;20068;-76
2022/01/13 07:44:17;;;;;;;22.23;10.95;;;-3.90;70.80;;;;;;5075005;28;20031;-76
2022/01/13 07:46:42;;;;;;;24.15;10.65;;;-3.80;70.90;;;;;;5074902;28;20373;-76
2022/01/13 07:49:08;;;;;;;22.25;10.50;;;-3.70;71.00;;;;;;5056867;28;20020;-76
2022/01/13 07:51:33;;;;;;;19.65;9.57;;;-3.60;70.80;;;;;;5074487;28;20033;-76
2022/01/13 07:53:59;;;;;;;21.45;8.93;;;-3.60;70.50;;;;;;5074934;28;20433;-76
2022/01/13 07:56:25;;;;;;;19.88;8.45;;;-3.50;70.40;;;;;;5075977;28;20103;-77
2022/01/13 07:58:50;;;;;;;21.67;8.98;;;-3.40;70.30;;;;;;5090564;28;20031;-77
2022/01/13 08:01:16;;;;;;;14.77;6.90;;;-3.40;70.20;;;;;;5098093;28;20025;-77
2022/01/13 08:03:41;;;;;;;21.95;9.73;;;-3.30;70.20;;;;;;5098508;28;20031;-76
2022/01/13 08:06:07;;;;;;;27.77;11.38;;;-3.20;70.10;;;;;;5099529;28;20043;-77
2022/01/13 08:08:35;;;;;;;31.63;14.55;;;-3.10;69.60;;;;;;5097602;28;20048;-76
2022/01/13 08:11:05;;;;;;;30.92;14.82;;;-3.10;68.80;;;;;;5081337;28;20389;-76
2022/01/13 08:13:31;;;;;;;38.15;18.27;;;-3.20;68.50;;;;;;5076653;28;20485;-75
2022/01/13 08:16:03;;;;;;;40.38;18.88;;;-3.20;69.00;;;;;;5076053;28;20031;-76
2022/01/13 08:21:12;;;;;;;44.47;19.98;;;-3.10;69.80;;;;;;5074271;28;20090;-76
2022/01/13 08:23:38;;;;;;;63.15;26.67;;;-3.10;69.80;;;;;;5073832;28;20481;-76
2022/01/13 08:26:04;;;;;;;57.85;25.70;;;-3.10;69.70;;;;;;5073794;28;20431;-77
2022/01/13 08:28:30;;;;;;;56.10;21.50;;;-3.00;69.80;;;;;;5073894;28;20523;-77
2022/01/13 08:30:59;;;;;;;57.83;24.58;;;-2.90;69.70;;;;;;5073688;28;20465;-77
2022/01/13 08:33:25;;;;;;;48.78;22.25;;;-2.80;69.40;;;;;;5073817;28;20103;-77
2022/01/13 08:35:53;;;;;;;45.33;20.52;;;-2.70;69.00;;;;;;5073479;28;20063;-76
2022/01/13 08:38:19;;;;;;;37.70;18.73;;;-2.60;68.90;;;;;;5073728;28;20473;-76
2022/01/13 08:40:47;;;;;;;42.80;18.92;;;-2.50;69.00;;;;;;5073436;28;20441;-77
2022/01/13 08:43:14;;;;;;;35.85;17.70;;;-2.30;69.40;;;;;;5073617;28;20051;-77
2022/01/13 08:45:40;;;;;;;40.28;19.65;;;-2.10;69.50;;;;;;5073384;28;20115;-76
2022/01/13 08:48:05;;;;;;;43.28;20.75;;;-1.90;68.80;;;;;;5072328;28;20100;-77
2022/01/13 08:50:31;;;;;;;36.55;19.30;;;-1.80;68.10;;;;;;5072747;28;20020;-77
2022/01/13 08:52:57;;;;;;;38.38;18.83;;;-1.60;67.70;;;;;;5072491;28;20028;-76
2022/01/13 08:55:23;;;;;;;38.97;19.50;;;-1.40;67.30;;;;;;5072586;28;20020;-75
2022/01/13 08:57:48;;;;;;;38.22;20.02;;;-1.20;67.00;;;;;;5072810;28;20032;-75
2022/01/13 09:00:14;;;;;;;42.85;21.90;;;-1.10;66.20;;;;;;5072695;28;20021;-75
2022/01/13 09:02:41;;;;;;;41.72;19.55;;;-0.90;65.80;;;;;;5073272;28;20028;-76
2022/01/13 09:05:07;;;;;;;39.20;20.55;;;-0.90;64.50;;;;;;5073351;28;20081;-76
2022/01/13 09:07:33;;;;;;;36.00;17.88;;;-0.80;64.70;;;;;;5072788;28;20108;-75
2022/01/13 09:09:58;;;;;;;34.25;18.70;;;-0.80;64.70;;;;;;5072814;28;20020;-75
2022/01/13 09:12:24;;;;;;;38.22;18.92;;;-0.50;64.90;;;;;;5072763;28;20438;-76
2022/01/13 09:14:51;;;;;;;42.35;19.38;;;-0.30;64.10;;;;;;5072871;28;20035;-79
2022/01/13 09:17:23;;;;;;;36.88;18.25;;;-0.10;63.50;;;;;;5055135;28;20021;-76
2022/01/13 09:19:51;;;;;;;34.38;14.77;;;0.20;63.20;;;;;;5073231;28;20032;-81
2022/01/13 09:22:18;;;;;;;32.58;16.75;;;0.80;69.30;;;;;;5055213;28;20032;-79
2022/01/13 09:24:43;;;;;;;37.20;18.08;;;1.60;81.10;;;;;;5073005;28;20107;-81
2022/01/13 09:27:09;;;;;;;32.92;17.70;;;2.40;73.50;;;;;;5073090;28;20067;-83
2022/01/13 09:29:34;;;;;;;33.63;18.15;;;3.20;66.20;;;;;;5054853;28;20044;-82
2022/01/13 09:32:00;;;;;;;34.88;19.77;;;3.70;61.20;;;;;;5072986;28;20031;-80
2022/01/13 09:34:26;;;;;;;37.85;18.52;;;4.00;55.80;;;;;;5054655;28;20477;-82
2022/01/13 09:36:51;;;;;;;28.33;16.45;;;4.20;52.40;;;;;;5054899;28;20070;-80
2022/01/13 09:39:17;;;;;;;28.02;15.88;;;4.30;51.50;;;;;;5054778;28;20119;-80
2022/01/13 09:41:44;;;;;;;24.38;14.63;;;4.20;49.30;;;;;;5074114;28;20037;-80
2022/01/13 09:44:13;;;;;;;28.42;14.98;;;4.20;50.40;;;;;;5054832;28;20453;-80
2022/01/13 09:46:39;;;;;;;28.90;16.45;;;4.40;50.50;;;;;;5082333;28;20103;-79
2022/01/13 09:49:06;;;;;;;24.73;13.57;;;4.50;49.60;;;;;;5074724;28;20024;-75
2022/01/13 09:51:33;;;;;;;23.42;14.02;;;4.40;48.30;;;;;;5074703;28;20024;-74
2022/01/13 09:53:59;;;;;;;23.65;14.15;;;4.40;48.90;;;;;;5076126;28;20035;-75
2022/01/13 09:56:25;;;;;;;26.65;15.35;;;4.30;50.10;;;;;;5073909;28;20032;-74
2022/01/13 09:58:51;;;;;;;26.63;15.30;;;4.20;49.50;;;;;;5072450;28;20025;-74
2022/01/13 10:01:17;;;;;;;23.30;14.55;;;4.20;49.60;;;;;;5072603;28;20040;-73
2022/01/13 10:03:44;;;;;;;24.85;14.73;;;4.10;49.60;;;;;;5054645;28;20078;-74
2022/01/13 10:06:12;;;;;;;25.40;14.00;;;4.10;49.70;;;;;;5072690;28;20063;-73
2022/01/13 10:08:44;;;;;;;24.27;14.95;;;4.30;49.90;;;;;;5054426;28;20029;-74
2022/01/13 10:11:37;;;;;;;22.45;13.57;;;4.50;48.80;;;;;;5072636;28;20435;-73
2022/01/13 10:16:55;;;;;;;22.88;13.85;;;5.00;46.50;;;;;;5072308;28;20060;-73
2022/01/13 10:19:36;;;;;;;23.35;13.43;;;5.20;45.80;;;;;;5054123;28;20377;-73
2022/01/13 10:22:23;;;;;;;22.95;14.63;;;5.30;45.30;;;;;;5072175;28;20032;-73
2022/01/13 10:24:54;;;;;;;23.58;14.18;;;5.20;45.10;;;;;;5072494;28;20025;-74
2022/01/13 10:27:28;;;;;;;24.35;13.85;;;5.40;45.40;;;;;;5058151;28;20028;-75
2022/01/13 10:30:01;;;;;;;23.98;15.20;;;5.50;44.60;;;;;;5076247;28;20067;-74
2022/01/13 10:32:36;;;;;;;24.50;14.52;;;5.70;44.40;;;;;;5075955;28;20028;-74
2022/01/13 10:35:03;;;;;;;22.48;14.23;;;5.80;44.50;;;;;;5076023;28;20044;-74
2022/01/13 10:37:34;;;;;;;24.02;14.88;;;5.90;44.90;;;;;;5075964;28;20111;-74
2022/01/13 10:40:13;;;;;;;24.67;14.45;;;6.00;44.60;;;;;;5075950;28;20028;-74
2022/01/13 10:43:06;;;;;;;22.65;13.63;;;6.00;44.80;;;;;;5057647;28;20036;-74
2022/01/13 10:45:32;;;;;;;27.70;15.45;;;6.30;44.30;;;;;;5075521;28;20079;-74
2022/01/13 10:48:04;;;;;;;23.77;13.82;;;6.30;43.70;;;;;;5075680;28;20028;-74
2022/01/13 10:50:36;;;;;;;29.02;15.65;;;6.10;43.80;;;;;;5075667;28;20063;-74
2022/01/13 10:53:06;;;;;;;26.35;15.77;;;5.80;45.30;;;;;;5075661;28;20485;-74
2022/01/13 10:55:37;;;;;;;29.10;16.67;;;5.90;46.00;;;;;;5075771;28;20086;-74
2022/01/13 10:58:03;;;;;;;30.30;16.75;;;6.20;45.60;;;;;;5075564;28;20367;-73
2022/01/13 11:00:32;;;;;;;23.80;15.68;;;6.00;46.50;;;;;;5057617;28;20559;-73
2022/01/13 11:03:18;;;;;;;26.40;15.77;;;6.40;45.60;;;;;;5075328;28;20032;-73
2022/01/13 11:05:47;;;;;;;;;;;6.80;43.90;;;;;;5075623;28;20025;-74
2022/01/13 11:08:23;;;;;;;31.08;14.63;;;7.10;42.80;;;;;;5057044;28;19904;-74
2022/01/13 11:10:52;;;;;;;31.25;16.15;;;7.00;42.20;;;;;;5075160;28;20020;-74
2022/01/13 11:13:23;;;;;;;26.35;15.20;;;7.10;42.00;;;;;;5074888;28;20016;-74
2022/01/13 11:15:55;;;;;;;23.13;14.70;;;7.20;42.50;;;;;;5075095;28;20017;-74
2022/01/13 11:18:29;;;;;;;23.92;15.85;;;7.40;41.10;;;;;;5056978;28;20055;-74
2022/01/13 11:20:56;;;;;;;27.75;15.27;;;7.30;41.30;;;;;;5057119;28;20044;-74
2022/01/13 11:23:22;;;;;;;21.90;14.20;;;7.60;40.60;;;;;;5056705;28;20020;-73
2022/01/13 11:25:54;;;;;;;23.80;13.65;;;7.70;39.90;;;;;;5074793;28;20384;-74
2022/01/13 11:28:20;;;;;;;21.65;13.23;;;7.80;39.30;;;;;;5057010;28;20499;-74
2022/01/13 11:30:49;;;;;;;21.00;12.95;;;8.00;39.20;;;;;;5074975;28;20020;-74
2022/01/13 11:33:15;;;;;;;20.88;13.63;;;8.40;38.20;;;;;;5057140;28;20390;-74
2022/01/13 11:35:50;;;;;;;22.38;13.77;;;8.40;37.60;;;;;;5056131;28;20044;-74
2022/01/13 11:38:19;;;;;;;22.88;12.55;;;8.70;37.40;;;;;;5074822;28;20493;-74
2022/01/13 11:40:48;;;;;;;27.08;14.35;;;9.10;36.40;;;;;;5056401;28;20056;-73
2022/01/13 11:43:32;;;;;;;24.90;15.23;;;9.60;35.30;;;;;;5056616;28;20025;-73
2022/01/13 11:46:21;;;;;;;20.48;14.18;;;10.20;34.30;;;;;;5074215;28;20024;-74
2022/01/13 11:49:15;;;;;;;28.40;15.05;;;10.60;32.90;;;;;;5055881;28;20111;-74
2022/01/13 11:51:47;;;;;;;23.63;14.05;;;10.90;32.50;;;;;;5073921;28;20047;-75
2022/01/13 11:54:33;;;;;;;25.40;13.98;;;11.40;32.20;;;;;;5055743;28;20544;-75
2022/01/13 11:57:25;;;;;;;28.60;14.77;;;11.80;30.70;;;;;;5055571;28;20483;-74
2022/01/13 12:00:00;;;;;;;21.23;12.82;;;12.60;30.20;;;;;;5055798;28;20028;-74
2022/01/13 12:02:26;;;;;;;14.67;9.13;;;13.60;28.60;;;;;;5055727;28;20119;-74
2022/01/13 12:05:16;;;;;;;18.40;12.38;;;14.50;27.30;;;;;;5055652;28;20271;-75
2022/01/13 12:07:53;;;;;;;23.80;13.65;;;15.50;25.50;;;;;;5046789;28;20138;-75
2022/01/13 12:10:40;;;;;;;23.98;12.85;;;16.40;23.60;;;;;;5056201;28;20025;-74
2022/01/13 12:13:28;;;;;;;20.92;12.07;;;17.20;21.90;;;;;;5055959;28;20417;-74
2022/01/13 12:15:55;;;;;;;18.77;11.52;;;17.20;20.20;;;;;;5055841;28;20020;-74
2022/01/13 12:18:44;;;;;;;20.30;12.73;;;17.60;20.20;;;;;;5055730;28;20025;-73
2022/01/13 12:21:34;;;;;;;23.13;13.93;;;18.30;19.70;;;;;;5046744;28;20055;-73
2022/01/13 12:24:01;;;;;;;16.48;10.80;;;19.10;19.20;;;;;;5055881;28;20032;-75
2022/01/13 12:26:33;;;;;;;17.88;11.73;;;19.80;18.30;;;;;;5055455;28;20044;-75
2022/01/13 12:29:18;;;;;;;20.05;12.35;;;20.70;17.50;;;;;;5073458;28;20020;-74
2022/01/13 12:31:59;;;;;;;13.10;10.93;;;21.30;16.60;;;;;;5073346;28;20060;-74
2022/01/13 12:34:28;;;;;;;17.73;11.38;;;22.00;15.90;;;;;;5055451;28;20024;-75
2022/01/13 12:37:19;;;;;;;17.02;12.10;;;21.00;15.30;;;;;;5055559;28;20468;-75
2022/01/13 12:40:12;;;;;;;18.65;12.80;;;20.30;15.70;;;;;;5055665;28;20051;-75
2022/01/13 12:42:52;;;;;;;19.02;12.48;;;19.60;16.50;;;;;;5055578;28;20049;-74
2022/01/13 12:45:29;;;;;;;18.90;13.90;;;20.20;16.80;;;;;;5073416;28;20047;-75
2022/01/13 12:48:09;;;;;;;19.17;14.38;;;20.70;16.30;;;;;;5072698;28;20028;-76
2022/01/13 12:50:43;;;;;;;20.60;14.68;;;21.00;16.20;;;;;;5073027;28;20372;-76
2022/01/13 12:53:14;;;;;;;21.45;15.80;;;20.80;16.00;;;;;;5055306;28;20028;-76
2022/01/13 12:55:44;;;;;;;20.50;15.60;;;21.80;15.80;;;;;;5055029;28;20031;-75
2022/01/13 12:58:10;;;;;;;20.40;14.55;;;23.00;15.10;;;;;;5055201;28;20025;-76
2022/01/13 13:00:36;;;;;;;17.25;13.38;;;23.30;14.30;;;;;;5055446;28;20362;-76